Terminal Aerodrome Forecast
Issued by NWS

Home | Current Version | Previous Version | Text Only | Print | Product List | Glossary On
Versions: 1 2 3 4 5 6 7 8 9 10 11 12
070
FTUS44 KEPZ 242320
TAFTCS
TAF
KTCS 242320Z 2500/2524 09009KT P6SM FEW120 SCT250
     FM250300 33008KT P6SM SCT150 SCT250
     FM251200 01007KT P6SM SCT150
     FM251900 05006KT P6SM FEW090 SCT140 SCT250=

USA.gov is the U.S. government's official web portal to all federal, state and local government web resources and services.